This is the latest recevied weather packets stored in our database for station/object KC5AV. If no packets are shown the sender has not sent any weather packets the latest 10 day(s).
| Time | Temp. | Humidity | Pressure | Rain* | Wind** | Luminosity | Snow |
|---|---|---|---|---|---|---|---|
| 1777688757 | 13.33° C | 96% | 1018 hPa | 0 mm | - | 0 W/m² | - |
| 1777688455 | 13.33° C | 96% | 1018.2 hPa | 0 mm | - | 0 W/m² | - |
| 1777688152 | 13.33° C | 96% | 1018.4 hPa | 0 mm | - | 0 W/m² | - |
| 1777687849 | 13.33° C | 96% | 1018.4 hPa | 0 mm | - | 0 W/m² | - |
| 1777687546 | 13.33° C | 96% | 1018.1 hPa | 0 mm | - | 0 W/m² | - |
| 1777673781 | 15.56° C | 79% | 1015.1 hPa | 0 mm | - | 157 W/m² | - |
| 1777673177 | 15.56° C | 79% | 1015.2 hPa | 0 mm | - | 172 W/m² | - |
| 1777672570 | 15.56° C | 78% | 1014.8 hPa | 0 mm | - | 192 W/m² | - |
| 1777671960 | 15.56° C | 78% | 1015.1 hPa | 0 mm | - | 255 W/m² | - |
| 1777671656 | 15.56° C | 78% | 1015.2 hPa | 0 mm | - | 264 W/m² | - |
| 1777671353 | 15° C | 80% | 1015.3 hPa | 0 mm | - | 261 W/m² | - |
| 1777671049 | 15° C | 82% | 1015.4 hPa | 0 mm | - | 237 W/m² | - |
| 1777670746 | 14.44° C | 83% | 1015.8 hPa | 0 mm | - | 123 W/m² | - |
| 1777670443 | 14.44° C | 83% | 1016 hPa | 0 mm | - | 101 W/m² | - |
| 1777670139 | 14.44° C | 82% | 1016.4 hPa | 0 mm | - | 82 W/m² | - |
| 1777669838 | 14.44° C | 82% | 1016.4 hPa | 0 mm | - | 82 W/m² | - |
| 1777669533 | 14.44° C | 82% | 1016.4 hPa | 0 mm | - | 81 W/m² | - |
| 1777669230 | 15° C | 82% | 1016.4 hPa | 0 mm | - | 87 W/m² | - |
| 1777668927 | 15° C | 81% | 1016.3 hPa | 0 mm | - | 100 W/m² | - |
| 1777668625 | 15° C | 82% | 1016.3 hPa | 0 mm | - | 105 W/m² | - |
| 1777668321 | 15° C | 81% | 1015.8 hPa | 0 mm | - | 139 W/m² | - |
| 1777667714 | 15.56° C | 81% | 1015.1 hPa | 0 mm | - | 176 W/m² | - |
| 1777667412 | 15.56° C | 79% | 1015 hPa | 0 mm | - | 214 W/m² | - |
| 1777665593 | 16.67° C | 83% | 1014.2 hPa | 0 mm | - | 306 W/m² | - |
| 1777661654 | 13.33° C | 95% | 1016.2 hPa | 0 mm | - | 188 W/m² | - |
* Rain latest hour (hover to see other rain measurements)
** Current wind speed in m/s (hover to see current wind gust speed)